sensor_id;sensor_type;location;lat;lon;timestamp;P1;durP1;ratioP1;P2;durP2;ratioP2
45232;SDS011;30969;51.052;17.056;2023-05-16T04:55:12;14.23;;;11.40;;
45232;SDS011;30969;51.052;17.056;2023-05-16T05:00:16;15.93;;;11.38;;
45232;SDS011;30969;51.052;17.056;2023-05-16T05:05:20;12.57;;;9.82;;
45232;SDS011;30969;51.052;17.056;2023-05-16T05:10:25;14.27;;;10.40;;
45232;SDS011;30969;51.052;17.056;2023-05-16T05:15:29;12.20;;;10.23;;
45232;SDS011;30969;51.052;17.056;2023-05-16T05:20:33;13.88;;;9.10;;
45232;SDS011;30969;51.052;17.056;2023-05-16T05:25:39;16.42;;;9.45;;
45232;SDS011;30969;51.052;17.056;2023-05-16T05:30:42;13.77;;;9.80;;
45232;SDS011;30969;51.052;17.056;2023-05-16T05:35:46;12.65;;;9.52;;
45232;SDS011;30969;51.052;17.056;2023-05-16T05:40:51;11.43;;;10.13;;
45232;SDS011;30969;51.052;17.056;2023-05-16T05:45:55;15.48;;;10.07;;
45232;SDS011;30969;51.052;17.056;2023-05-16T05:50:58;10.82;;;9.18;;
45232;SDS011;30969;51.052;17.056;2023-05-16T05:56:04;11.63;;;9.02;;
45232;SDS011;30969;51.052;17.056;2023-05-16T06:01:07;13.13;;;9.10;;
45232;SDS011;30969;51.052;17.056;2023-05-16T06:06:12;12.43;;;9.43;;
45232;SDS011;30969;51.052;17.056;2023-05-16T06:11:18;13.00;;;9.70;;
45232;SDS011;30969;51.052;17.056;2023-05-16T06:16:23;12.40;;;9.93;;
45232;SDS011;30969;51.052;17.056;2023-05-16T06:21:27;16.27;;;10.15;;
45232;SDS011;30969;51.052;17.056;2023-05-16T06:26:33;15.63;;;10.35;;
45232;SDS011;30969;51.052;17.056;2023-05-16T06:31:37;17.45;;;10.52;;
45232;SDS011;30969;51.052;17.056;2023-05-16T06:36:41;11.70;;;9.20;;
45232;SDS011;30969;51.052;17.056;2023-05-16T06:41:46;14.65;;;10.43;;
45232;SDS011;30969;51.052;17.056;2023-05-16T06:46:50;12.82;;;9.93;;
45232;SDS011;30969;51.052;17.056;2023-05-16T06:51:54;13.85;;;11.02;;
45232;SDS011;30969;51.052;17.056;2023-05-16T06:56:59;15.13;;;11.13;;
45232;SDS011;30969;51.052;17.056;2023-05-16T07:02:03;13.48;;;10.30;;
45232;SDS011;30969;51.052;17.056;2023-05-16T07:07:07;12.90;;;11.43;;
45232;SDS011;30969;51.052;17.056;2023-05-16T07:12:12;15.25;;;11.43;;
45232;SDS011;30969;51.052;17.056;2023-05-16T07:17:15;13.52;;;11.70;;
45232;SDS011;30969;51.052;17.056;2023-05-16T07:22:20;15.75;;;11.52;;
45232;SDS011;30969;51.052;17.056;2023-05-16T07:27:24;17.70;;;10.57;;
45232;SDS011;30969;51.052;17.056;2023-05-16T07:32:28;15.63;;;11.15;;
45232;SDS011;30969;51.052;17.056;2023-05-16T07:37:32;13.30;;;10.85;;
45232;SDS011;30969;51.052;17.056;2023-05-16T07:42:37;10.55;;;9.52;;
45232;SDS011;30969;51.052;17.056;2023-05-16T07:47:41;12.82;;;10.55;;
45232;SDS011;30969;51.052;17.056;2023-05-16T07:52:44;14.65;;;10.73;;
45232;SDS011;30969;51.052;17.056;2023-05-16T07:57:49;11.52;;;9.40;;
45232;SDS011;30969;51.052;17.056;2023-05-16T08:02:53;13.88;;;10.05;;
45232;SDS011;30969;51.052;17.056;2023-05-16T08:07:57;10.90;;;9.85;;
45232;SDS011;30969;51.052;17.056;2023-05-16T08:13:01;13.73;;;9.07;;
45232;SDS011;30969;51.052;17.056;2023-05-16T08:18:06;9.68;;;8.52;;
45232;SDS011;30969;51.052;17.056;2023-05-16T08:23:15;13.45;;;8.68;;
45232;SDS011;30969;51.052;17.056;2023-05-16T08:28:20;11.30;;;9.05;;
45232;SDS011;30969;51.052;17.056;2023-05-16T08:33:24;15.13;;;9.50;;
45232;SDS011;30969;51.052;17.056;2023-05-16T08:38:28;16.92;;;9.40;;
45232;SDS011;30969;51.052;17.056;2023-05-16T08:43:32;12.55;;;9.32;;
45232;SDS011;30969;51.052;17.056;2023-05-16T08:48:37;15.70;;;11.25;;
45232;SDS011;30969;51.052;17.056;2023-05-16T08:53:44;14.02;;;11.13;;
45232;SDS011;30969;51.052;17.056;2023-05-16T08:58:53;10.73;;;9.63;;
45232;SDS011;30969;51.052;17.056;2023-05-16T09:03:59;12.10;;;9.57;;
45232;SDS011;30969;51.052;17.056;2023-05-16T09:09:03;11.98;;;8.85;;
45232;SDS011;30969;51.052;17.056;2023-05-16T09:14:10;14.27;;;9.48;;
45232;SDS011;30969;51.052;17.056;2023-05-16T09:19:15;8.45;;;7.65;;
45232;SDS011;30969;51.052;17.056;2023-05-16T09:24:19;9.20;;;8.27;;
45232;SDS011;30969;51.052;17.056;2023-05-16T09:29:29;12.20;;;9.15;;
45232;SDS011;30969;51.052;17.056;2023-05-16T09:34:36;11.00;;;9.02;;
45232;SDS011;30969;51.052;17.056;2023-05-16T09:39:44;8.98;;;8.05;;
45232;SDS011;30969;51.052;17.056;2023-05-16T09:44:51;8.45;;;7.55;;
45232;SDS011;30969;51.052;17.056;2023-05-16T09:49:57;9.27;;;8.15;;
45232;SDS011;30969;51.052;17.056;2023-05-16T09:55:02;10.48;;;9.35;;
45232;SDS011;30969;51.052;17.056;2023-05-16T10:00:11;12.10;;;9.23;;
45232;SDS011;30969;51.052;17.056;2023-05-16T10:05:15;9.00;;;8.10;;
45232;SDS011;30969;51.052;17.056;2023-05-16T10:10:19;8.90;;;8.02;;
45232;SDS011;30969;51.052;17.056;2023-05-16T10:15:23;9.45;;;8.55;;
45232;SDS011;30969;51.052;17.056;2023-05-16T10:20:28;13.90;;;9.38;;
45232;SDS011;30969;51.052;17.056;2023-05-16T10:25:33;16.08;;;9.15;;
45232;SDS011;30969;51.052;17.056;2023-05-16T10:30:43;10.43;;;9.25;;
45232;SDS011;30969;51.052;17.056;2023-05-16T10:35:47;9.55;;;8.18;;
45232;SDS011;30969;51.052;17.056;2023-05-16T10:40:51;10.15;;;9.13;;
45232;SDS011;30969;51.052;17.056;2023-05-16T10:45:58;12.65;;;10.73;;
45232;SDS011;30969;51.052;17.056;2023-05-16T10:56:26;13.60;;;10.93;;
45232;SDS011;30969;51.052;17.056;2023-05-16T11:01:32;17.27;;;12.48;;
45232;SDS011;30969;51.052;17.056;2023-05-16T11:06:43;16.70;;;11.30;;
45232;SDS011;30969;51.052;17.056;2023-05-16T11:11:57;14.65;;;12.15;;
45232;SDS011;30969;51.052;17.056;2023-05-16T11:17:05;13.23;;;10.52;;
45232;SDS011;30969;51.052;17.056;2023-05-16T11:22:21;15.40;;;12.43;;
45232;SDS011;30969;51.052;17.056;2023-05-16T11:27:27;16.35;;;11.75;;
45232;SDS011;30969;51.052;17.056;2023-05-16T11:32:34;14.82;;;11.98;;
45232;SDS011;30969;51.052;17.056;2023-05-16T11:37:38;18.77;;;14.43;;
45232;SDS011;30969;51.052;17.056;2023-05-16T11:42:43;23.90;;;14.00;;
45232;SDS011;30969;51.052;17.056;2023-05-16T11:47:49;20.17;;;16.08;;
45232;SDS011;30969;51.052;17.056;2023-05-16T11:52:53;18.05;;;14.63;;
45232;SDS011;30969;51.052;17.056;2023-05-16T11:57:58;21.63;;;16.63;;
45232;SDS011;30969;51.052;17.056;2023-05-16T12:03:04;16.92;;;14.13;;
45232;SDS011;30969;51.052;17.056;2023-05-16T12:08:09;24.10;;;17.00;;
45232;SDS011;30969;51.052;17.056;2023-05-16T12:13:13;24.38;;;16.35;;
45232;SDS011;30969;51.052;17.056;2023-05-16T12:18:22;18.67;;;15.52;;
45232;SDS011;30969;51.052;17.056;2023-05-16T12:23:26;17.05;;;14.27;;
45232;SDS011;30969;51.052;17.056;2023-05-16T12:28:30;20.45;;;16.77;;
45232;SDS011;30969;51.052;17.056;2023-05-16T12:33:37;22.52;;;15.27;;
45232;SDS011;30969;51.052;17.056;2023-05-16T12:38:40;22.48;;;15.60;;
45232;SDS011;30969;51.052;17.056;2023-05-16T12:43:48;20.73;;;15.40;;
45232;SDS011;30969;51.052;17.056;2023-05-16T12:48:57;21.75;;;16.10;;
45232;SDS011;30969;51.052;17.056;2023-05-16T12:54:06;20.92;;;16.10;;
45232;SDS011;30969;51.052;17.056;2023-05-16T12:59:12;21.55;;;16.80;;
45232;SDS011;30969;51.052;17.056;2023-05-16T13:04:17;22.77;;;16.35;;
45232;SDS011;30969;51.052;17.056;2023-05-16T13:09:21;20.35;;;15.68;;
45232;SDS011;30969;51.052;17.056;2023-05-16T13:14:25;21.45;;;17.45;;
45232;SDS011;30969;51.052;17.056;2023-05-16T13:19:30;21.15;;;17.63;;
45232;SDS011;30969;51.052;17.056;2023-05-16T13:24:33;24.92;;;18.58;;
45232;SDS011;30969;51.052;17.056;2023-05-16T13:29:37;26.00;;;18.52;;
45232;SDS011;30969;51.052;17.056;2023-05-16T13:34:42;27.98;;;17.65;;
45232;SDS011;30969;51.052;17.056;2023-05-16T13:39:46;23.50;;;18.10;;
45232;SDS011;30969;51.052;17.056;2023-05-16T13:44:49;26.40;;;18.30;;
45232;SDS011;30969;51.052;17.056;2023-05-16T13:49:54;23.55;;;18.92;;
45232;SDS011;30969;51.052;17.056;2023-05-16T13:54:58;26.70;;;19.45;;
45232;SDS011;30969;51.052;17.056;2023-05-16T14:00:02;32.45;;;21.88;;
45232;SDS011;30969;51.052;17.056;2023-05-16T14:05:34;28.98;;;20.70;;
45232;SDS011;30969;51.052;17.056;2023-05-16T14:10:37;28.77;;;20.65;;
45232;SDS011;30969;51.052;17.056;2023-05-16T14:15:41;33.40;;;21.63;;
45232;SDS011;30969;51.052;17.056;2023-05-16T14:20:46;34.92;;;23.35;;
45232;SDS011;30969;51.052;17.056;2023-05-16T14:25:51;36.63;;;23.23;;
45232;SDS011;30969;51.052;17.056;2023-05-16T14:30:56;39.00;;;24.00;;
45232;SDS011;30969;51.052;17.056;2023-05-16T14:36:01;31.02;;;22.60;;
45232;SDS011;30969;51.052;17.056;2023-05-16T14:41:08;39.85;;;24.02;;
45232;SDS011;30969;51.052;17.056;2023-05-16T14:46:12;37.75;;;24.25;;
45232;SDS011;30969;51.052;17.056;2023-05-16T14:51:17;38.20;;;25.05;;
45232;SDS011;30969;51.052;17.056;2023-05-16T14:56:21;38.60;;;24.77;;
45232;SDS011;30969;51.052;17.056;2023-05-16T15:01:24;38.15;;;24.98;;
45232;SDS011;30969;51.052;17.056;2023-05-16T15:06:31;53.92;;;26.80;;
45232;SDS011;30969;51.052;17.056;2023-05-16T15:11:35;33.97;;;22.77;;
45232;SDS011;30969;51.052;17.056;2023-05-16T15:16:39;40.78;;;25.08;;
45232;SDS011;30969;51.052;17.056;2023-05-16T15:21:45;35.67;;;23.90;;
45232;SDS011;30969;51.052;17.056;2023-05-16T15:26:49;41.90;;;23.17;;
45232;SDS011;30969;51.052;17.056;2023-05-16T15:31:53;35.50;;;21.33;;
45232;SDS011;30969;51.052;17.056;2023-05-16T15:36:59;33.40;;;22.63;;
45232;SDS011;30969;51.052;17.056;2023-05-16T15:42:03;36.95;;;22.75;;
45232;SDS011;30969;51.052;17.056;2023-05-16T15:47:12;32.42;;;21.52;;
45232;SDS011;30969;51.052;17.056;2023-05-16T15:52:17;36.95;;;22.50;;
45232;SDS011;30969;51.052;17.056;2023-05-16T15:57:23;32.85;;;21.58;;
45232;SDS011;30969;51.052;17.056;2023-05-16T16:02:27;35.63;;;23.70;;
45232;SDS011;30969;51.052;17.056;2023-05-16T16:07:32;33.75;;;22.30;;
45232;SDS011;30969;51.052;17.056;2023-05-16T16:12:36;33.38;;;21.73;;
45232;SDS011;30969;51.052;17.056;2023-05-16T16:17:39;31.33;;;21.80;;
45232;SDS011;30969;51.052;17.056;2023-05-16T16:22:44;34.28;;;21.77;;
45232;SDS011;30969;51.052;17.056;2023-05-16T16:27:48;27.45;;;21.55;;
45232;SDS011;30969;51.052;17.056;2023-05-16T16:32:52;33.10;;;23.65;;
45232;SDS011;30969;51.052;17.056;2023-05-16T16:37:57;29.75;;;21.70;;
45232;SDS011;30969;51.052;17.056;2023-05-16T16:43:07;31.83;;;22.15;;
45232;SDS011;30969;51.052;17.056;2023-05-16T16:48:11;27.85;;;21.45;;
45232;SDS011;30969;51.052;17.056;2023-05-16T16:53:16;33.05;;;23.42;;
45232;SDS011;30969;51.052;17.056;2023-05-16T16:58:20;32.95;;;22.05;;
45232;SDS011;30969;51.052;17.056;2023-05-16T17:03:23;26.83;;;21.42;;
45232;SDS011;30969;51.052;17.056;2023-05-16T17:08:29;28.27;;;20.80;;
45232;SDS011;30969;51.052;17.056;2023-05-16T17:13:32;25.90;;;20.83;;
45232;SDS011;30969;51.052;17.056;2023-05-16T17:18:38;25.70;;;19.77;;
45232;SDS011;30969;51.052;17.056;2023-05-16T17:23:45;25.90;;;19.55;;
45232;SDS011;30969;51.052;17.056;2023-05-16T17:28:48;23.67;;;18.80;;
45232;SDS011;30969;51.052;17.056;2023-05-16T17:33:52;28.58;;;19.38;;
45232;SDS011;30969;51.052;17.056;2023-05-16T17:38:57;23.23;;;18.10;;
45232;SDS011;30969;51.052;17.056;2023-05-16T17:44:00;28.92;;;18.65;;
45232;SDS011;30969;51.052;17.056;2023-05-16T17:49:04;22.88;;;18.80;;
45232;SDS011;30969;51.052;17.056;2023-05-16T17:54:10;25.90;;;18.92;;
45232;SDS011;30969;51.052;17.056;2023-05-16T17:59:14;29.23;;;19.45;;
45232;SDS011;30969;51.052;17.056;2023-05-16T18:04:18;28.80;;;21.75;;
45232;SDS011;30969;51.052;17.056;2023-05-16T18:09:25;25.10;;;19.33;;
45232;SDS011;30969;51.052;17.056;2023-05-16T18:14:29;27.38;;;18.55;;
45232;SDS011;30969;51.052;17.056;2023-05-16T18:19:34;28.23;;;20.30;;
45232;SDS011;30969;51.052;17.056;2023-05-16T18:24:39;27.58;;;20.25;;
45232;SDS011;30969;51.052;17.056;2023-05-16T18:29:43;35.60;;;20.77;;
45232;SDS011;30969;51.052;17.056;2023-05-16T18:34:47;26.95;;;19.92;;
45232;SDS011;30969;51.052;17.056;2023-05-16T18:39:52;27.77;;;19.17;;
45232;SDS011;30969;51.052;17.056;2023-05-16T18:44:56;30.85;;;21.48;;
45232;SDS011;30969;51.052;17.056;2023-05-16T18:50:00;28.13;;;20.30;;
45232;SDS011;30969;51.052;17.056;2023-05-16T18:55:05;29.83;;;22.00;;
45232;SDS011;30969;51.052;17.056;2023-05-16T19:00:10;31.90;;;22.58;;
45232;SDS011;30969;51.052;17.056;2023-05-16T19:05:14;32.13;;;23.17;;
45232;SDS011;30969;51.052;17.056;2023-05-16T19:10:19;33.85;;;23.35;;
45232;SDS011;30969;51.052;17.056;2023-05-16T19:15:23;30.70;;;23.17;;
45232;SDS011;30969;51.052;17.056;2023-05-16T19:20:27;31.73;;;23.58;;
45232;SDS011;30969;51.052;17.056;2023-05-16T19:25:32;28.13;;;21.98;;
45232;SDS011;30969;51.052;17.056;2023-05-16T19:30:36;35.60;;;23.60;;
45232;SDS011;30969;51.052;17.056;2023-05-16T19:35:40;31.27;;;23.92;;
45232;SDS011;30969;51.052;17.056;2023-05-16T19:40:45;35.80;;;24.83;;
45232;SDS011;30969;51.052;17.056;2023-05-16T19:45:49;36.05;;;25.45;;
45232;SDS011;30969;51.052;17.056;2023-05-16T19:50:53;32.72;;;24.98;;
45232;SDS011;30969;51.052;17.056;2023-05-16T19:55:58;35.78;;;25.35;;
45232;SDS011;30969;51.052;17.056;2023-05-16T20:01:03;35.25;;;25.55;;
45232;SDS011;30969;51.052;17.056;2023-05-16T20:06:06;33.38;;;23.92;;
45232;SDS011;30969;51.052;17.056;2023-05-16T20:11:11;32.15;;;24.08;;
45232;SDS011;30969;51.052;17.056;2023-05-16T20:16:15;29.00;;;22.55;;
45232;SDS011;30969;51.052;17.056;2023-05-16T20:21:23;30.50;;;22.50;;
45232;SDS011;30969;51.052;17.056;2023-05-16T20:26:28;27.55;;;22.48;;
45232;SDS011;30969;51.052;17.056;2023-05-16T20:31:32;29.45;;;21.02;;
45232;SDS011;30969;51.052;17.056;2023-05-16T20:36:36;27.50;;;20.85;;
45232;SDS011;30969;51.052;17.056;2023-05-16T20:41:42;29.55;;;21.90;;
45232;SDS011;30969;51.052;17.056;2023-05-16T20:46:49;23.98;;;19.05;;
45232;SDS011;30969;51.052;17.056;2023-05-16T20:51:53;26.73;;;17.88;;
45232;SDS011;30969;51.052;17.056;2023-05-16T20:56:58;22.52;;;16.95;;
45232;SDS011;30969;51.052;17.056;2023-05-16T21:02:03;24.38;;;17.65;;
45232;SDS011;30969;51.052;17.056;2023-05-16T21:07:10;23.92;;;17.63;;
45232;SDS011;30969;51.052;17.056;2023-05-16T21:12:15;26.40;;;17.52;;
45232;SDS011;30969;51.052;17.056;2023-05-16T21:17:18;22.30;;;16.83;;
45232;SDS011;30969;51.052;17.056;2023-05-16T21:22:22;24.83;;;16.88;;
45232;SDS011;30969;51.052;17.056;2023-05-16T21:27:27;24.08;;;15.82;;
45232;SDS011;30969;51.052;17.056;2023-05-16T21:32:30;23.10;;;17.20;;
45232;SDS011;30969;51.052;17.056;2023-05-16T21:37:34;26.48;;;16.95;;
45232;SDS011;30969;51.052;17.056;2023-05-16T21:42:39;27.55;;;20.00;;
45232;SDS011;30969;51.052;17.056;2023-05-16T21:47:43;25.70;;;17.48;;
45232;SDS011;30969;51.052;17.056;2023-05-16T21:52:47;26.98;;;17.60;;
45232;SDS011;30969;51.052;17.056;2023-05-16T21:57:52;29.70;;;20.38;;
45232;SDS011;30969;51.052;17.056;2023-05-16T22:02:56;26.17;;;19.13;;
45232;SDS011;30969;51.052;17.056;2023-05-16T22:07:59;22.30;;;16.20;;
45232;SDS011;30969;51.052;17.056;2023-05-16T22:13:04;23.48;;;16.95;;
45232;SDS011;30969;51.052;17.056;2023-05-16T22:18:09;25.23;;;16.80;;
45232;SDS011;30969;51.052;17.056;2023-05-16T22:23:12;21.20;;;15.93;;
45232;SDS011;30969;51.052;17.056;2023-05-16T22:28:17;21.13;;;15.52;;
